Time;durP1;ratioP1;P1;durP2;ratioP2;P2;SDS_P1;SDS_P2;PMS_P1;PMS_P2;Temp;Humidity;BMP_temperature;BMP_pressure;BME280_temperature;BME280_humidity;BME280_pressure;Samples;Min_cycle;Max_cycle;Signal;HPM_P1;HPM_P2
2021/07/23 00:00:40;;;;;;;16.10;11.32;;;24.90;99.90;;;;;;4996225;28;20106;-87
2021/07/23 00:03:06;;;;;;;19.15;12.43;;;24.90;99.90;;;;;;4995955;28;20042;-89
2021/07/23 00:05:32;;;;;;;21.48;13.05;;;24.90;99.90;;;;;;4996435;28;20030;-89
2021/07/23 00:07:58;;;;;;;22.13;12.13;;;24.80;99.90;;;;;;4996013;28;20062;-85
2021/07/23 00:10:24;;;;;;;21.10;12.70;;;24.70;99.90;;;;;;4996319;28;20065;-84
2021/07/23 00:12:50;;;;;;;20.98;12.50;;;24.70;99.90;;;;;;4978967;28;20030;-84
2021/07/23 00:15:15;;;;;;;20.98;13.25;;;24.60;99.90;;;;;;4995719;28;20033;-83
2021/07/23 00:17:41;;;;;;;18.42;11.98;;;24.60;99.90;;;;;;4996070;28;20242;-89
2021/07/23 00:20:07;;;;;;;16.50;12.15;;;24.60;99.90;;;;;;4995569;28;20022;-86
2021/07/23 00:22:33;;;;;;;20.98;12.23;;;24.50;99.90;;;;;;4984671;28;20452;-89
2021/07/23 00:25:02;;;;;;;24.80;13.40;;;24.50;99.90;;;;;;4996041;28;20089;-84
2021/07/23 00:27:27;;;;;;;23.08;13.25;;;24.50;99.90;;;;;;4978438;28;20647;-86
2021/07/23 00:29:53;;;;;;;22.13;12.27;;;24.50;99.90;;;;;;4996175;28;20124;-89
2021/07/23 00:32:19;;;;;;;17.55;11.77;;;24.50;99.90;;;;;;4994857;28;20464;-87
2021/07/23 00:34:44;;;;;;;18.10;12.63;;;24.60;99.90;;;;;;4995549;28;20033;-87
2021/07/23 00:37:10;;;;;;;21.67;12.32;;;24.50;99.90;;;;;;4995335;28;20034;-83
2021/07/23 00:39:36;;;;;;;17.05;12.95;;;24.60;99.90;;;;;;4994134;28;20026;-87
2021/07/23 00:42:01;;;;;;;22.20;12.60;;;24.60;99.90;;;;;;4994754;28;20348;-89
2021/07/23 00:44:27;;;;;;;22.42;12.60;;;24.60;99.90;;;;;;4995520;28;20475;-89
2021/07/23 00:46:55;;;;;;;17.88;12.30;;;24.70;99.90;;;;;;4995197;28;20058;-88
2021/07/23 00:49:21;;;;;;;17.42;12.15;;;24.70;99.90;;;;;;4995245;28;20057;-88
2021/07/23 00:51:47;;;;;;;23.83;12.00;;;24.60;99.90;;;;;;4992007;28;20031;-83
2021/07/23 00:54:14;;;;;;;18.85;11.73;;;24.60;99.90;;;;;;4977877;28;20084;-88
2021/07/23 00:56:40;;;;;;;22.30;13.32;;;24.60;99.90;;;;;;4995627;28;20019;-89
2021/07/23 00:59:05;;;;;;;19.88;12.02;;;24.50;99.90;;;;;;4995144;28;20030;-86
2021/07/23 01:01:32;;;;;;;16.25;12.15;;;24.50;99.90;;;;;;4994948;28;20064;-87
2021/07/23 01:03:58;;;;;;;15.93;11.57;;;24.50;99.90;;;;;;4995077;28;20037;-83
2021/07/23 01:06:25;;;;;;;20.80;12.73;;;24.50;99.90;;;;;;4994671;28;20026;-84
2021/07/23 01:08:50;;;;;;;21.88;12.60;;;24.60;99.90;;;;;;4994945;28;20030;-88
2021/07/23 01:11:16;;;;;;;20.23;12.68;;;24.50;99.90;;;;;;4995228;28;20084;-85
2021/07/23 01:13:42;;;;;;;23.38;13.85;;;24.50;99.90;;;;;;4996121;28;20033;-86
2021/07/23 01:16:09;;;;;;;19.65;13.32;;;24.60;99.90;;;;;;4994696;28;20922;-85
2021/07/23 01:18:35;;;;;;;18.90;12.07;;;24.50;99.90;;;;;;4994575;28;20025;-82
2021/07/23 01:21:01;;;;;;;17.40;12.82;;;24.60;99.90;;;;;;4994083;28;20030;-87
2021/07/23 01:23:34;;;;;;;18.45;12.98;;;24.60;99.90;;;;;;4994323;28;20440;-85
2021/07/23 01:26:04;;;;;;;25.83;13.55;;;24.60;99.90;;;;;;4993461;28;20030;-83
2021/07/23 01:28:32;;;;;;;21.95;12.23;;;24.50;99.90;;;;;;4976489;28;20081;-83
2021/07/23 01:30:59;;;;;;;19.85;12.02;;;24.50;99.90;;;;;;4994267;28;20057;-84
2021/07/23 01:33:28;;;;;;;20.55;11.70;;;24.50;99.90;;;;;;4976933;28;20438;-83
2021/07/23 01:35:54;;;;;;;17.70;12.07;;;24.50;99.90;;;;;;4977513;28;20419;-86
2021/07/23 01:38:24;;;;;;;16.73;11.75;;;24.50;99.90;;;;;;4994564;28;20023;-84
2021/07/23 01:40:49;;;;;;;16.27;12.20;;;24.50;99.90;;;;;;4993837;28;20093;-83
2021/07/23 01:43:16;;;;;;;18.30;12.25;;;24.50;99.90;;;;;;4994177;28;20490;-87
2021/07/23 01:45:42;;;;;;;20.45;12.75;;;24.40;99.90;;;;;;4993779;28;20053;-83
2021/07/23 01:48:08;;;;;;;15.40;11.73;;;24.40;99.90;;;;;;4994041;28;20116;-86
2021/07/23 01:50:34;;;;;;;20.20;12.05;;;24.30;99.90;;;;;;4992935;28;20531;-83
2021/07/23 01:53:00;;;;;;;18.77;13.10;;;24.30;99.90;;;;;;4976769;28;20022;-87
2021/07/23 01:55:25;;;;;;;20.15;12.77;;;24.30;99.90;;;;;;4993759;28;20062;-84
2021/07/23 01:57:51;;;;;;;19.02;11.95;;;24.30;99.90;;;;;;4993847;28;20106;-87
2021/07/23 02:00:17;;;;;;;17.35;12.25;;;24.30;99.90;;;;;;4993832;28;20022;-84
2021/07/23 02:02:43;;;;;;;24.75;12.80;;;24.20;99.90;;;;;;4976396;28;20034;-83
2021/07/23 02:05:09;;;;;;;15.85;11.93;;;24.20;99.90;;;;;;4993743;28;20093;-83
2021/07/23 02:07:36;;;;;;;26.73;11.77;;;24.20;99.90;;;;;;4993523;28;20027;-83
2021/07/23 02:10:04;;;;;;;19.08;11.90;;;24.20;99.90;;;;;;4993702;28;20034;-86
2021/07/23 02:12:30;;;;;;;18.05;12.40;;;24.20;99.90;;;;;;4976785;28;20546;-87
2021/07/23 02:14:55;;;;;;;16.55;11.00;;;24.20;99.90;;;;;;4992374;28;20507;-88
2021/07/23 02:17:21;;;;;;;25.42;12.80;;;24.10;99.90;;;;;;4993435;28;20510;-85
2021/07/23 02:19:47;;;;;;;17.27;11.70;;;24.10;99.90;;;;;;4993555;28;20034;-83
2021/07/23 02:22:13;;;;;;;18.75;12.05;;;24.10;99.90;;;;;;4992818;28;20058;-83
2021/07/23 02:24:39;;;;;;;22.98;12.02;;;24.10;99.90;;;;;;4991328;28;20040;-88
2021/07/23 02:27:04;;;;;;;19.67;11.65;;;24.10;99.90;;;;;;4993446;28;20022;-87
2021/07/23 02:29:30;;;;;;;16.23;12.15;;;24.10;99.90;;;;;;4993427;28;20038;-87
2021/07/23 02:31:55;;;;;;;17.23;11.32;;;24.10;99.90;;;;;;4993050;28;20067;-87
2021/07/23 02:34:22;;;;;;;21.92;13.02;;;24.20;99.90;;;;;;4993543;28;20439;-88
2021/07/23 02:36:48;;;;;;;23.83;11.50;;;24.20;99.90;;;;;;4992091;28;20033;-86
2021/07/23 02:39:14;;;;;;;18.45;11.63;;;24.20;99.90;;;;;;4993347;28;20410;-85
2021/07/23 02:41:39;;;;;;;17.73;12.40;;;24.20;99.90;;;;;;4991992;28;20027;-87
2021/07/23 02:44:05;;;;;;;18.42;11.35;;;24.10;99.90;;;;;;4975796;28;20059;-87
2021/07/23 02:46:31;;;;;;;18.50;11.60;;;24.10;99.90;;;;;;4992762;28;20117;-84
2021/07/23 02:48:57;;;;;;;18.75;11.02;;;24.10;99.90;;;;;;4993062;28;20053;-87
2021/07/23 02:51:22;;;;;;;28.48;12.23;;;24.10;99.90;;;;;;4992082;28;20030;-88
2021/07/23 02:53:48;;;;;;;18.25;12.07;;;24.10;99.90;;;;;;4993199;28;20101;-84
2021/07/23 02:56:13;;;;;;;17.20;11.95;;;24.00;99.90;;;;;;4991685;28;20494;-87
2021/07/23 02:58:42;;;;;;;15.30;10.93;;;24.00;99.90;;;;;;4993146;28;20098;-87
2021/07/23 03:01:10;;;;;;;16.15;10.95;;;24.00;99.90;;;;;;4975303;28;20022;-84
2021/07/23 03:03:36;;;;;;;19.60;11.48;;;24.00;99.90;;;;;;4992759;28;20029;-84
2021/07/23 03:06:02;;;;;;;16.60;12.55;;;24.00;99.90;;;;;;4975627;28;20034;-83
2021/07/23 03:08:28;;;;;;;19.63;11.60;;;24.00;99.90;;;;;;4992628;28;20494;-88
2021/07/23 03:10:55;;;;;;;15.77;10.90;;;23.90;99.90;;;;;;4993303;28;20043;-85
2021/07/23 03:13:21;;;;;;;21.63;12.65;;;23.90;99.90;;;;;;4992868;28;20053;-85
2021/07/23 03:15:46;;;;;;;19.92;12.07;;;23.90;99.90;;;;;;4992594;28;20491;-86
2021/07/23 03:18:12;;;;;;;19.67;12.00;;;23.90;99.90;;;;;;4992894;28;20050;-89
2021/07/23 03:20:38;;;;;;;20.13;11.35;;;23.80;99.90;;;;;;4993106;28;20094;-81
2021/07/23 03:23:07;;;;;;;16.70;11.40;;;23.80;99.90;;;;;;4992532;28;20030;-82
2021/07/23 03:25:33;;;;;;;19.20;11.77;;;23.80;99.90;;;;;;4991651;28;20033;-87
2021/07/23 03:27:59;;;;;;;22.48;11.77;;;23.80;99.90;;;;;;4992797;28;20023;-89
2021/07/23 03:30:25;;;;;;;24.98;11.52;;;23.80;99.90;;;;;;4992028;28;20026;-82
2021/07/23 03:32:50;;;;;;;16.25;11.32;;;23.80;99.90;;;;;;4992807;28;20057;-82
2021/07/23 03:35:16;;;;;;;27.60;12.32;;;23.80;99.90;;;;;;4992460;28;20420;-83
2021/07/23 03:37:42;;;;;;;21.35;12.10;;;23.70;99.90;;;;;;4992720;28;20022;-86
2021/07/23 03:40:08;;;;;;;15.32;11.77;;;23.70;99.90;;;;;;4992772;28;20015;-83
2021/07/23 03:42:34;;;;;;;25.70;12.68;;;23.70;99.90;;;;;;4993353;28;20053;-83
2021/07/23 03:45:00;;;;;;;17.63;12.23;;;23.70;99.90;;;;;;4992839;28;20026;-83
2021/07/23 03:47:26;;;;;;;22.98;12.00;;;23.70;99.90;;;;;;4992119;28;20037;-82
2021/07/23 03:49:51;;;;;;;18.90;12.15;;;23.70;99.90;;;;;;4992049;28;20042;-88
2021/07/23 03:52:17;;;;;;;19.85;12.05;;;23.70;99.90;;;;;;4993026;28;20081;-82
2021/07/23 03:54:43;;;;;;;21.15;12.98;;;23.70;99.90;;;;;;4992465;28;20029;-82
2021/07/23 03:57:08;;;;;;;26.25;12.35;;;23.70;99.90;;;;;;4975196;28;20018;-82
2021/07/23 03:59:35;;;;;;;16.90;11.63;;;23.70;99.90;;;;;;4992082;28;20026;-84
2021/07/23 04:02:01;;;;;;;22.27;11.80;;;23.70;99.90;;;;;;4993063;28;20526;-88
2021/07/23 04:04:27;;;;;;;16.20;11.63;;;23.80;99.90;;;;;;4992476;28;20057;-82
2021/07/23 04:06:59;;;;;;;19.65;12.13;;;23.70;99.90;;;;;;4975157;28;20022;-82
2021/07/23 04:09:28;;;;;;;17.45;11.73;;;23.70;99.90;;;;;;4995954;28;20034;-82
2021/07/23 04:11:53;;;;;;;26.67;12.15;;;23.80;99.90;;;;;;4978561;28;20019;-83
2021/07/23 04:14:20;;;;;;;23.10;11.82;;;23.80;99.90;;;;;;4995983;28;20033;-86
2021/07/23 04:16:46;;;;;;;18.58;12.43;;;23.80;99.90;;;;;;4994556;28;20038;-82
2021/07/23 04:19:12;;;;;;;18.90;11.63;;;23.90;99.90;;;;;;4995800;28;20465;-82
2021/07/23 04:21:37;;;;;;;16.75;11.45;;;23.90;99.90;;;;;;4994103;28;20029;-83
2021/07/23 04:24:04;;;;;;;14.98;10.98;;;24.00;99.90;;;;;;4992188;28;20031;-89
2021/07/23 04:26:29;;;;;;;19.55;12.15;;;24.00;99.90;;;;;;4991604;28;20023;-84
2021/07/23 04:28:55;;;;;;;21.23;11.45;;;24.10;99.90;;;;;;4995897;28;20031;-83
2021/07/23 04:31:21;;;;;;;17.40;11.88;;;24.20;99.90;;;;;;4995636;28;20482;-84
2021/07/23 04:33:47;;;;;;;24.27;11.38;;;24.30;99.90;;;;;;4996183;28;20029;-83
2021/07/23 04:36:13;;;;;;;15.05;10.98;;;24.40;99.90;;;;;;4995356;28;20042;-86
2021/07/23 04:38:38;;;;;;;16.23;11.50;;;24.50;99.90;;;;;;4994067;28;20023;-86
2021/07/23 04:41:04;;;;;;;12.93;10.32;;;24.60;99.90;;;;;;4995129;28;20031;-82
2021/07/23 04:43:35;;;;;;;20.27;11.73;;;24.60;99.90;;;;;;5000892;28;20018;-84
2021/07/23 04:46:01;;;;;;;20.20;11.90;;;24.80;99.90;;;;;;4998479;28;20080;-82
2021/07/23 04:48:26;;;;;;;21.25;11.35;;;25.10;99.90;;;;;;4999591;28;20031;-84
2021/07/23 04:50:52;;;;;;;16.90;11.32;;;25.10;99.90;;;;;;4979506;28;20039;-81
2021/07/23 04:53:18;;;;;;;15.43;10.73;;;25.10;99.90;;;;;;4995259;28;20037;-87
2021/07/23 04:55:49;;;;;;;17.95;11.65;;;25.00;99.90;;;;;;4993766;28;20027;-85
2021/07/23 04:58:16;;;;;;;29.27;11.70;;;24.90;99.90;;;;;;4995391;28;20041;-84
2021/07/23 05:00:42;;;;;;;19.27;11.98;;;24.70;99.90;;;;;;4994026;28;20475;-86
2021/07/23 05:03:08;;;;;;;21.20;12.10;;;24.60;99.90;;;;;;4994943;28;20026;-82
2021/07/23 05:05:34;;;;;;;17.85;11.48;;;24.50;99.90;;;;;;4993848;28;20028;-83
2021/07/23 05:08:00;;;;;;;16.27;10.43;;;24.30;99.90;;;;;;4995102;28;20018;-87
2021/07/23 05:10:26;;;;;;;18.98;11.50;;;24.30;99.90;;;;;;4997571;28;20029;-88
2021/07/23 05:12:52;;;;;;;20.10;11.18;;;24.30;99.90;;;;;;4995869;28;20097;-84
2021/07/23 05:15:18;;;;;;;17.13;11.40;;;24.40;99.90;;;;;;4994139;28;20035;-85
2021/07/23 05:17:44;;;;;;;15.20;11.25;;;24.50;99.90;;;;;;4993772;28;20490;-82
2021/07/23 05:20:10;;;;;;;18.00;11.00;;;24.50;99.90;;;;;;4992864;28;20456;-82
2021/07/23 05:22:38;;;;;;;26.48;12.75;;;24.50;99.90;;;;;;4993693;28;20102;-87
2021/07/23 05:25:05;;;;;;;24.38;12.45;;;24.60;99.90;;;;;;4994052;28;20014;-88
2021/07/23 05:27:31;;;;;;;15.40;10.88;;;25.00;99.90;;;;;;4994049;28;20034;-82
2021/07/23 05:29:59;;;;;;;20.67;10.80;;;26.40;99.90;;;;;;4993875;28;20034;-82
2021/07/23 05:32:25;;;;;;;19.58;10.05;;;27.00;99.90;;;;;;4994305;28;20549;-82
2021/07/23 05:34:51;;;;;;;20.80;11.05;;;27.30;99.90;;;;;;4994328;28;20030;-83
2021/07/23 05:37:16;;;;;;;12.82;10.63;;;27.70;99.90;;;;;;4993748;28;20072;-88
2021/07/23 05:39:42;;;;;;;21.60;10.50;;;27.20;99.90;;;;;;4994460;28;20030;-87
2021/07/23 05:42:11;;;;;;;15.30;11.07;;;26.60;99.90;;;;;;4994575;28;20021;-82
2021/07/23 05:44:36;;;;;;;19.02;10.55;;;26.00;99.90;;;;;;4994163;28;20066;-85
2021/07/23 05:47:02;;;;;;;13.98;10.80;;;25.70;99.90;;;;;;4994426;28;20050;-81
2021/07/23 05:49:28;;;;;;;19.33;10.70;;;25.60;99.90;;;;;;4993876;28;20045;-83
2021/07/23 05:51:54;;;;;;;16.50;10.52;;;25.50;99.90;;;;;;4994229;28;20053;-83
2021/07/23 05:54:20;;;;;;;16.98;10.55;;;25.40;99.90;;;;;;4993916;28;20045;-83
2021/07/23 05:56:46;;;;;;;17.95;11.13;;;25.50;99.90;;;;;;4994661;28;20027;-85
2021/07/23 05:59:12;;;;;;;19.30;11.52;;;25.60;99.90;;;;;;4990574;28;20563;-84
2021/07/23 06:01:38;;;;;;;15.23;10.63;;;25.70;99.90;;;;;;4993644;28;20139;-83
2021/07/23 06:04:03;;;;;;;20.27;11.02;;;25.90;99.90;;;;;;4994225;28;20022;-83
2021/07/23 06:06:30;;;;;;;18.20;10.55;;;26.10;99.90;;;;;;4993669;28;20014;-84
2021/07/23 06:08:56;;;;;;;19.00;10.30;;;28.00;99.90;;;;;;4993267;28;20045;-82
2021/07/23 06:11:22;;;;;;;18.63;10.52;;;28.90;99.90;;;;;;4994997;28;20028;-82
2021/07/23 06:13:48;;;;;;;18.05;10.52;;;28.40;99.90;;;;;;4986737;28;20475;-90
2021/07/23 06:16:13;;;;;;;14.35;10.02;;;28.60;99.90;;;;;;4993046;28;20049;-87
2021/07/23 06:18:39;;;;;;;12.93;8.95;;;29.80;99.40;;;;;;4992831;28;20486;-82
2021/07/23 06:21:08;;;;;;;16.83;9.00;;;31.90;97.40;;;;;;4995681;28;20023;-85
2021/07/23 06:23:34;;;;;;;12.18;8.18;;;33.80;95.00;;;;;;4996743;28;20014;-88
2021/07/23 06:26:04;;;;;;;17.08;9.10;;;34.80;93.30;;;;;;4994836;28;20030;-88
2021/07/23 06:28:30;;;;;;;13.98;8.25;;;35.40;91.70;;;;;;4995288;28;20018;-83
2021/07/23 06:31:00;;;;;;;20.30;8.65;;;36.20;90.50;;;;;;5001590;28;20087;-83
2021/07/23 06:33:25;;;;;;;22.48;8.15;;;36.60;89.70;;;;;;4983194;28;20112;-81
2021/07/23 06:35:51;;;;;;;13.63;7.97;;;37.50;86.90;;;;;;5012927;28;20061;-78
2021/07/23 06:38:17;;;;;;;11.23;7.68;;;38.50;85.40;;;;;;5011395;28;20026;-80
2021/07/23 06:40:42;;;;;;;9.15;7.18;;;38.90;82.00;;;;;;5012205;28;20084;-82
2021/07/23 06:43:08;;;;;;;11.52;7.75;;;39.40;81.60;;;;;;5012159;28;20113;-83
2021/07/23 06:45:34;;;;;;;10.75;7.43;;;39.60;79.60;;;;;;5011672;28;20115;-84
2021/07/23 06:48:00;;;;;;;23.73;8.18;;;39.70;78.70;;;;;;5012164;28;20160;-82
2021/07/23 06:50:27;;;;;;;11.27;7.90;;;39.50;79.40;;;;;;4998893;28;20499;-86
2021/07/23 06:52:53;;;;;;;10.88;7.20;;;39.60;79.10;;;;;;4992377;28;20033;-85
2021/07/23 06:55:18;;;;;;;10.98;7.32;;;39.80;78.60;;;;;;4992643;28;20438;-87
2021/07/23 06:57:44;;;;;;;12.68;7.40;;;40.10;78.50;;;;;;4991999;28;20379;-81
2021/07/23 07:00:10;;;;;;;13.80;7.15;;;39.90;76.60;;;;;;4990593;28;20023;-83
2021/07/23 07:02:36;;;;;;;15.55;7.68;;;39.70;77.10;;;;;;4991727;28;20030;-81
2021/07/23 07:05:02;;;;;;;11.07;6.90;;;39.90;76.50;;;;;;4993043;28;20022;-83
2021/07/23 07:07:28;;;;;;;12.98;7.72;;;39.30;77.80;;;;;;4992980;28;20030;-88
2021/07/23 07:09:54;;;;;;;12.15;7.03;;;38.70;77.30;;;;;;4992387;28;20106;-80
2021/07/23 07:12:20;;;;;;;16.45;8.40;;;37.90;78.80;;;;;;4992869;28;20030;-90
2021/07/23 07:14:46;;;;;;;14.30;8.07;;;36.80;80.30;;;;;;4991365;28;20025;-84
2021/07/23 07:17:11;;;;;;;12.20;8.77;;;36.80;82.00;;;;;;4992700;28;20442;-84
2021/07/23 07:19:37;;;;;;;17.92;8.45;;;36.20;81.90;;;;;;5004205;28;20501;-81
2021/07/23 07:22:04;;;;;;;19.35;9.02;;;35.60;83.10;;;;;;5003520;28;20029;-79
2021/07/23 07:24:30;;;;;;;13.00;9.50;;;34.50;84.70;;;;;;5007965;28;20030;-82
2021/07/23 07:26:56;;;;;;;14.00;9.23;;;33.40;86.70;;;;;;5012325;28;20033;-82
2021/07/23 07:29:21;;;;;;;20.85;9.02;;;32.70;89.20;;;;;;4994724;28;20073;-79
2021/07/23 07:31:47;;;;;;;18.13;8.98;;;32.40;89.60;;;;;;4994625;28;20109;-86
2021/07/23 07:34:13;;;;;;;16.98;8.70;;;31.80;90.00;;;;;;4998299;28;20109;-79
2021/07/23 07:36:39;;;;;;;19.80;9.98;;;31.70;90.50;;;;;;5012727;28;20022;-79
2021/07/23 07:39:05;;;;;;;11.27;9.40;;;31.80;90.40;;;;;;5012100;28;20022;-80
2021/07/23 07:41:31;;;;;;;15.20;9.63;;;31.70;90.30;;;;;;5013014;28;20060;-80
2021/07/23 07:43:57;;;;;;;18.55;9.52;;;31.40;90.60;;;;;;5016273;28;20049;-75
2021/07/23 07:46:23;;;;;;;15.82;9.38;;;31.30;91.10;;;;;;5016033;28;20026;-78
2021/07/23 07:48:49;;;;;;;22.40;10.00;;;31.40;91.00;;;;;;5015148;28;20038;-76
2021/07/23 07:51:15;;;;;;;13.10;9.10;;;31.80;90.60;;;;;;4995745;28;20026;-78
2021/07/23 07:53:41;;;;;;;21.50;10.20;;;31.90;90.70;;;;;;4996015;28;20058;-82
2021/07/23 07:56:07;;;;;;;13.18;8.90;;;32.10;90.70;;;;;;4983712;28;20026;-77
2021/07/23 07:58:33;;;;;;;11.52;8.48;;;32.10;90.70;;;;;;4994298;28;20050;-75
2021/07/23 08:00:59;;;;;;;17.23;9.05;;;32.40;90.60;;;;;;4991958;28;20069;-83
2021/07/23 08:03:25;;;;;;;15.50;8.80;;;32.60;90.40;;;;;;4996434;28;20029;-76
2021/07/23 08:05:54;;;;;;;14.43;9.10;;;32.60;90.10;;;;;;4996359;28;20080;-76
2021/07/23 08:08:21;;;;;;;19.27;9.82;;;32.70;90.10;;;;;;4996101;28;20022;-81
2021/07/23 08:10:47;;;;;;;15.07;9.13;;;32.70;90.00;;;;;;4994782;28;20034;-76
2021/07/23 08:13:16;;;;;;;14.93;8.90;;;32.70;89.70;;;;;;4995710;28;20050;-75
2021/07/23 08:15:43;;;;;;;16.38;8.38;;;32.70;88.60;;;;;;4996092;28;20399;-75
2021/07/23 08:18:09;;;;;;;18.13;8.93;;;32.40;89.10;;;;;;4978759;28;20040;-81
2021/07/23 08:20:39;;;;;;;14.07;9.38;;;32.50;88.90;;;;;;4996045;28;20022;-76
2021/07/23 08:23:05;;;;;;;22.10;9.98;;;32.60;89.80;;;;;;4995784;28;20459;-78
2021/07/23 08:25:31;;;;;;;21.85;10.68;;;32.90;88.10;;;;;;4995806;28;20026;-76
2021/07/23 08:27:57;;;;;;;18.27;9.40;;;33.20;87.00;;;;;;4995766;28;20046;-81
2021/07/23 08:30:22;;;;;;;15.40;8.60;;;33.50;86.30;;;;;;4994390;28;20039;-83
2021/07/23 08:32:48;;;;;;;24.20;9.88;;;33.50;86.50;;;;;;4995826;28;20102;-76
2021/07/23 08:35:14;;;;;;;33.35;10.18;;;33.40;86.40;;;;;;4995431;28;20029;-76
2021/07/23 08:37:40;;;;;;;15.55;9.07;;;33.70;86.20;;;;;;4990873;28;20030;-80
2021/07/23 08:40:08;;;;;;;13.13;8.43;;;33.60;86.10;;;;;;4995636;28;20043;-75
2021/07/23 08:42:35;;;;;;;10.80;8.93;;;33.40;86.20;;;;;;4995565;28;20018;-76
2021/07/23 08:45:03;;;;;;;16.25;8.10;;;33.60;85.80;;;;;;4995655;28;20018;-79
2021/07/23 08:47:29;;;;;;;16.90;8.85;;;33.50;85.80;;;;;;4994996;28;20534;-77
2021/07/23 08:49:55;;;;;;;17.02;9.20;;;33.70;86.70;;;;;;4995465;28;20039;-75
2021/07/23 08:52:41;;;;;;;13.45;8.57;;;34.00;86.00;;;;;;4995009;28;20471;-76
2021/07/23 08:55:09;;;;;;;20.75;8.43;;;34.00;85.90;;;;;;4995451;28;20035;-82
2021/07/23 08:57:35;;;;;;;15.93;8.77;;;34.20;85.10;;;;;;4995353;28;20026;-75
2021/07/23 09:00:06;;;;;;;15.77;8.57;;;33.90;84.50;;;;;;4995204;28;20018;-86
2021/07/23 09:02:55;;;;;;;15.37;8.93;;;34.00;85.20;;;;;;4995265;28;20080;-79
2021/07/23 09:05:27;;;;;;;22.45;9.05;;;34.10;85.10;;;;;;4995494;28;20022;-76
2021/07/23 09:07:53;;;;;;;15.70;8.40;;;34.40;84.30;;;;;;4995302;28;20023;-88
2021/07/23 09:10:23;;;;;;;11.85;7.90;;;34.30;84.40;;;;;;4995394;28;20062;-84
2021/07/23 09:12:52;;;;;;;12.35;7.95;;;34.40;83.50;;;;;;4995029;28;20451;-78
2021/07/23 09:15:25;;;;;;;15.25;8.00;;;34.10;84.40;;;;;;4994898;28;20045;-76
2021/07/23 09:17:52;;;;;;;14.85;8.88;;;34.00;84.20;;;;;;4977778;28;20026;-78
2021/07/23 09:20:24;;;;;;;17.10;9.80;;;33.90;84.40;;;;;;4995318;28;20105;-77
2021/07/23 09:22:50;;;;;;;13.48;9.02;;;34.00;84.90;;;;;;4995429;28;20034;-81
2021/07/23 09:25:33;;;;;;;12.07;8.70;;;33.90;84.70;;;;;;4994973;28;20026;-78
2021/07/23 09:27:58;;;;;;;12.80;9.10;;;34.00;85.10;;;;;;4995295;28;20383;-81
2021/07/23 09:30:44;;;;;;;18.95;9.07;;;33.90;84.80;;;;;;4994667;28;20049;-84
2021/07/23 09:33:10;;;;;;;14.40;9.02;;;33.90;84.50;;;;;;4994877;28;20030;-80
2021/07/23 09:35:36;;;;;;;15.85;9.07;;;34.00;84.60;;;;;;4994878;28;20033;-78
2021/07/23 09:38:03;;;;;;;15.38;9.23;;;34.00;84.60;;;;;;4988247;28;20027;-83
2021/07/23 09:40:44;;;;;;;15.18;9.60;;;34.10;84.80;;;;;;4994730;28;20018;-76
2021/07/23 09:43:11;;;;;;;15.13;8.75;;;34.30;84.50;;;;;;4994429;28;20037;-86
2021/07/23 09:45:37;;;;;;;22.08;9.88;;;34.50;84.80;;;;;;4994457;28;20097;-81
2021/07/23 09:48:13;;;;;;;14.35;8.43;;;34.40;84.50;;;;;;4994515;28;20038;-82
2021/07/23 09:50:44;;;;;;;12.50;9.18;;;34.60;84.10;;;;;;4993970;28;20038;-87
2021/07/23 09:53:11;;;;;;;15.82;9.13;;;34.60;84.00;;;;;;4994956;28;20216;-82
2021/07/23 09:55:37;;;;;;;11.88;9.15;;;34.40;84.30;;;;;;4994811;28;20113;-81
2021/07/23 09:58:06;;;;;;;13.20;8.15;;;34.10;83.80;;;;;;4994570;28;20046;-82
2021/07/23 10:00:41;;;;;;;15.63;8.68;;;34.20;83.90;;;;;;4994970;28;20124;-86
2021/07/23 10:03:14;;;;;;;16.88;9.50;;;34.40;84.40;;;;;;4994809;28;20022;-87
2021/07/23 10:06:03;;;;;;;16.42;9.13;;;34.40;84.00;;;;;;4993745;28;20106;-77
2021/07/23 10:08:35;;;;;;;14.95;9.43;;;34.40;84.00;;;;;;4982504;28;20030;-75
2021/07/23 10:11:03;;;;;;;16.67;9.93;;;34.10;84.30;;;;;;4994800;28;20101;-84
2021/07/23 10:13:30;;;;;;;12.52;9.43;;;34.20;86.30;;;;;;4994923;28;20022;-77
2021/07/23 10:15:57;;;;;;;16.38;9.57;;;33.90;88.20;;;;;;4992086;28;20104;-74
2021/07/23 10:18:23;;;;;;;21.83;10.30;;;33.90;88.50;;;;;;4992880;28;20112;-86
2021/07/23 10:20:49;;;;;;;24.27;9.60;;;34.10;87.40;;;;;;4994306;28;20018;-76
2021/07/23 10:23:24;;;;;;;14.77;9.18;;;34.30;87.10;;;;;;4993748;28;20029;-78
2021/07/23 10:25:51;;;;;;;15.57;10.10;;;34.40;87.30;;;;;;4993912;28;20022;-76
2021/07/23 10:28:42;;;;;;;24.98;9.90;;;34.60;87.80;;;;;;4994613;28;20026;-82
2021/07/23 10:31:17;;;;;;;17.48;9.65;;;34.70;87.80;;;;;;4993445;28;20035;-76
2021/07/23 10:33:52;;;;;;;15.07;9.38;;;34.70;88.10;;;;;;4993404;28;20022;-76
2021/07/23 10:36:35;;;;;;;18.40;9.85;;;34.70;88.30;;;;;;4992119;28;20430;-76
2021/07/23 10:39:19;;;;;;;16.80;9.63;;;34.80;88.10;;;;;;4980498;28;20088;-77
2021/07/23 10:41:50;;;;;;;20.73;9.65;;;34.80;88.90;;;;;;4993033;28;20026;-83
2021/07/23 10:44:28;;;;;;;16.77;9.60;;;34.60;88.30;;;;;;4986211;28;20038;-80
2021/07/23 10:46:58;;;;;;;22.67;9.63;;;34.60;89.70;;;;;;4989442;28;20483;-86
2021/07/23 10:49:27;;;;;;;13.10;9.32;;;34.60;90.30;;;;;;4993631;28;20541;-83
2021/07/23 10:51:54;;;;;;;19.60;10.40;;;34.50;90.50;;;;;;4994054;28;20033;-76
2021/07/23 10:54:24;;;;;;;14.50;10.00;;;34.20;90.60;;;;;;4992748;28;20105;-77
2021/07/23 10:56:54;;;;;;;14.93;10.48;;;34.00;90.60;;;;;;4993630;28;20387;-76
2021/07/23 10:59:38;;;;;;;16.50;9.65;;;33.90;91.40;;;;;;4991285;28;20129;-77
2021/07/23 11:02:04;;;;;;;16.70;10.38;;;34.00;90.70;;;;;;4993667;28;20019;-88
2021/07/23 11:04:31;;;;;;;16.30;10.10;;;34.00;90.70;;;;;;4993369;28;20104;-76
2021/07/23 11:07:02;;;;;;;20.08;10.48;;;33.90;91.20;;;;;;4993847;28;20074;-74
2021/07/23 11:09:37;;;;;;;15.40;10.02;;;33.80;91.50;;;;;;4994357;28;20129;-76
2021/07/23 11:12:25;;;;;;;14.60;10.18;;;33.90;91.80;;;;;;4993898;28;20026;-76
2021/07/23 11:15:00;;;;;;;15.88;11.00;;;34.00;92.50;;;;;;4992890;28;20510;-85
2021/07/23 11:17:27;;;;;;;18.10;10.73;;;34.00;93.00;;;;;;4995636;28;20106;-76
2021/07/23 11:19:58;;;;;;;18.75;11.13;;;34.00;92.80;;;;;;4997012;28;20025;-79
2021/07/23 11:22:32;;;;;;;20.60;11.48;;;34.10;92.90;;;;;;4995855;28;20030;-76
2021/07/23 11:25:00;;;;;;;16.20;10.25;;;34.00;92.40;;;;;;4997376;28;20034;-79
2021/07/23 11:27:49;;;;;;;17.00;11.73;;;34.20;92.20;;;;;;4997412;28;20026;-86
2021/07/23 11:30:19;;;;;;;19.17;10.38;;;34.30;92.50;;;;;;4996132;28;20062;-80
2021/07/23 11:32:49;;;;;;;23.08;10.48;;;34.10;92.70;;;;;;4997453;28;20080;-86
2021/07/23 11:35:15;;;;;;;26.30;9.65;;;34.00;93.00;;;;;;4997689;28;20466;-76
2021/07/23 11:37:41;;;;;;;16.00;9.55;;;34.00;92.40;;;;;;4997447;28;20026;-83
2021/07/23 11:40:08;;;;;;;16.52;10.93;;;34.20;91.60;;;;;;4996712;28;20026;-76
2021/07/23 11:42:40;;;;;;;24.05;10.88;;;34.00;91.80;;;;;;4995681;28;20026;-76
2021/07/23 11:45:13;;;;;;;21.67;12.43;;;33.70;92.50;;;;;;4991513;28;20034;-77
2021/07/23 11:47:47;;;;;;;17.48;11.73;;;33.60;93.40;;;;;;4997138;28;20025;-76
2021/07/23 11:50:17;;;;;;;19.27;11.85;;;33.40;93.60;;;;;;4997740;28;20121;-76
2021/07/23 11:52:43;;;;;;;16.13;10.43;;;33.40;93.50;;;;;;4998809;28;20030;-77
2021/07/23 11:55:11;;;;;;;17.30;10.48;;;33.50;93.70;;;;;;4997192;28;20058;-77
2021/07/23 11:57:47;;;;;;;18.15;11.25;;;33.30;93.80;;;;;;4996188;28;20030;-76
2021/07/23 12:00:24;;;;;;;22.63;11.63;;;33.10;94.30;;;;;;4996616;28;20027;-77
2021/07/23 12:02:52;;;;;;;24.85;11.25;;;33.10;94.70;;;;;;4978846;28;20034;-76
2021/07/23 12:05:19;;;;;;;20.33;11.68;;;33.10;94.50;;;;;;4996782;28;20026;-76
2021/07/23 12:07:57;;;;;;;18.40;11.43;;;33.00;94.60;;;;;;4996666;28;20067;-76
2021/07/23 12:10:23;;;;;;;17.30;11.38;;;33.00;94.80;;;;;;4996715;28;20050;-88
2021/07/23 12:12:50;;;;;;;22.02;11.50;;;33.00;94.90;;;;;;4996808;28;20022;-79
2021/07/23 12:15:17;;;;;;;23.77;12.07;;;32.90;95.20;;;;;;4986760;28;20035;-76
2021/07/23 12:17:44;;;;;;;15.02;11.55;;;32.80;94.80;;;;;;4996487;28;20080;-76
2021/07/23 12:20:12;;;;;;;22.30;12.10;;;32.50;95.50;;;;;;4997055;28;20627;-77
2021/07/23 12:22:38;;;;;;;20.70;10.98;;;32.20;94.90;;;;;;4997085;28;20062;-85
2021/07/23 12:25:20;;;;;;;20.73;12.35;;;31.90;95.10;;;;;;4997162;28;20030;-85
2021/07/23 12:28:03;;;;;;;18.75;12.27;;;31.70;95.70;;;;;;4995929;28;20117;-84
2021/07/23 12:30:36;;;;;;;20.48;11.70;;;31.60;96.10;;;;;;4996477;28;20026;-83
2021/07/23 12:33:13;;;;;;;18.77;11.27;;;31.60;96.00;;;;;;4996529;28;20026;-81